sensor_id;sensor_type;location;lat;lon;timestamp;temperature;humidity
40960;DHT22;27842;52.272;8.052;2023-08-30T00:02:05;17.40;93.50
40960;DHT22;27842;52.272;8.052;2023-08-30T00:04:30;17.40;93.50
40960;DHT22;27842;52.272;8.052;2023-08-30T00:06:56;17.40;93.50
40960;DHT22;27842;52.272;8.052;2023-08-30T00:09:21;17.40;93.50
40960;DHT22;27842;52.272;8.052;2023-08-30T00:11:47;17.40;93.60
40960;DHT22;27842;52.272;8.052;2023-08-30T00:14:12;17.40;93.60
40960;DHT22;27842;52.272;8.052;2023-08-30T00:16:38;17.40;93.60
40960;DHT22;27842;52.272;8.052;2023-08-30T00:19:04;17.40;93.60
40960;DHT22;27842;52.272;8.052;2023-08-30T00:21:29;17.30;93.60
40960;DHT22;27842;52.272;8.052;2023-08-30T00:23:55;17.30;93.70
40960;DHT22;27842;52.272;8.052;2023-08-30T00:26:21;17.30;93.60
40960;DHT22;27842;52.272;8.052;2023-08-30T00:28:47;17.30;93.60
40960;DHT22;27842;52.272;8.052;2023-08-30T00:31:12;17.40;93.70
40960;DHT22;27842;52.272;8.052;2023-08-30T00:33:38;17.40;93.70
40960;DHT22;27842;52.272;8.052;2023-08-30T00:36:04;17.40;93.70
40960;DHT22;27842;52.272;8.052;2023-08-30T00:38:33;17.40;93.70
40960;DHT22;27842;52.272;8.052;2023-08-30T00:40:59;17.40;93.70
40960;DHT22;27842;52.272;8.052;2023-08-30T00:43:24;17.40;93.70
40960;DHT22;27842;52.272;8.052;2023-08-30T00:45:50;17.40;93.70
40960;DHT22;27842;52.272;8.052;2023-08-30T00:48:18;17.40;93.70
40960;DHT22;27842;52.272;8.052;2023-08-30T00:50:44;17.40;93.70
40960;DHT22;27842;52.272;8.052;2023-08-30T00:53:10;17.40;93.70
40960;DHT22;27842;52.272;8.052;2023-08-30T00:55:37;17.40;93.70
40960;DHT22;27842;52.272;8.052;2023-08-30T00:58:03;17.40;93.70
40960;DHT22;27842;52.272;8.052;2023-08-30T01:00:30;17.40;93.70
40960;DHT22;27842;52.272;8.052;2023-08-30T01:02:56;17.40;93.70
40960;DHT22;27842;52.272;8.052;2023-08-30T01:05:23;17.40;93.70
40960;DHT22;27842;52.272;8.052;2023-08-30T01:07:51;17.40;93.70
40960;DHT22;27842;52.272;8.052;2023-08-30T01:10:18;17.40;94.00
40960;DHT22;27842;52.272;8.052;2023-08-30T01:12:48;17.40;93.70
40960;DHT22;27842;52.272;8.052;2023-08-30T01:15:19;17.40;93.70
40960;DHT22;27842;52.272;8.052;2023-08-30T01:17:48;17.40;93.70
40960;DHT22;27842;52.272;8.052;2023-08-30T01:20:15;17.40;93.70
40960;DHT22;27842;52.272;8.052;2023-08-30T01:25:53;17.30;93.70
40960;DHT22;27842;52.272;8.052;2023-08-30T01:28:23;17.30;93.70
40960;DHT22;27842;52.272;8.052;2023-08-30T01:30:49;17.30;93.80
40960;DHT22;27842;52.272;8.052;2023-08-30T01:33:16;17.30;93.80
40960;DHT22;27842;52.272;8.052;2023-08-30T01:35:44;17.20;93.80
40960;DHT22;27842;52.272;8.052;2023-08-30T01:38:11;17.20;93.80
40960;DHT22;27842;52.272;8.052;2023-08-30T01:40:39;17.20;93.80
40960;DHT22;27842;52.272;8.052;2023-08-30T01:43:06;17.20;93.80
40960;DHT22;27842;52.272;8.052;2023-08-30T01:45:35;17.20;93.90
40960;DHT22;27842;52.272;8.052;2023-08-30T01:48:02;17.20;93.90
40960;DHT22;27842;52.272;8.052;2023-08-30T01:50:28;17.10;93.90
40960;DHT22;27842;52.272;8.052;2023-08-30T01:52:55;17.10;94.00
40960;DHT22;27842;52.272;8.052;2023-08-30T01:55:22;17.10;94.00
40960;DHT22;27842;52.272;8.052;2023-08-30T01:57:48;17.10;94.00
40960;DHT22;27842;52.272;8.052;2023-08-30T02:00:14;17.10;94.00
40960;DHT22;27842;52.272;8.052;2023-08-30T02:02:41;17.10;94.00
40960;DHT22;27842;52.272;8.052;2023-08-30T02:05:07;17.10;94.00
40960;DHT22;27842;52.272;8.052;2023-08-30T02:07:53;17.00;94.00
40960;DHT22;27842;52.272;8.052;2023-08-30T02:10:25;17.00;94.10
40960;DHT22;27842;52.272;8.052;2023-08-30T02:12:54;17.00;94.40
40960;DHT22;27842;52.272;8.052;2023-08-30T02:15:21;17.00;94.10
40960;DHT22;27842;52.272;8.052;2023-08-30T02:17:49;17.00;94.10
40960;DHT22;27842;52.272;8.052;2023-08-30T02:20:15;17.00;94.10
40960;DHT22;27842;52.272;8.052;2023-08-30T02:22:41;17.00;94.20
40960;DHT22;27842;52.272;8.052;2023-08-30T02:25:07;16.90;94.20
40960;DHT22;27842;52.272;8.052;2023-08-30T02:27:33;16.90;94.20
40960;DHT22;27842;52.272;8.052;2023-08-30T02:30:00;16.90;94.20
40960;DHT22;27842;52.272;8.052;2023-08-30T02:32:25;16.90;94.20
40960;DHT22;27842;52.272;8.052;2023-08-30T02:34:52;16.90;94.20
40960;DHT22;27842;52.272;8.052;2023-08-30T02:37:18;16.90;94.20
40960;DHT22;27842;52.272;8.052;2023-08-30T02:39:44;16.80;94.20
40960;DHT22;27842;52.272;8.052;2023-08-30T02:42:09;16.90;94.30
40960;DHT22;27842;52.272;8.052;2023-08-30T02:44:35;16.80;94.30
40960;DHT22;27842;52.272;8.052;2023-08-30T02:47:01;16.80;94.30
40960;DHT22;27842;52.272;8.052;2023-08-30T02:49:26;16.80;94.30
40960;DHT22;27842;52.272;8.052;2023-08-30T02:51:52;16.80;94.30
40960;DHT22;27842;52.272;8.052;2023-08-30T02:54:18;16.70;94.30
40960;DHT22;27842;52.272;8.052;2023-08-30T02:56:44;16.70;94.40
40960;DHT22;27842;52.272;8.052;2023-08-30T02:59:10;16.60;94.40
40960;DHT22;27842;52.272;8.052;2023-08-30T03:01:36;16.60;94.40
40960;DHT22;27842;52.272;8.052;2023-08-30T03:04:02;16.60;94.50
40960;DHT22;27842;52.272;8.052;2023-08-30T03:06:28;16.60;94.50
40960;DHT22;27842;52.272;8.052;2023-08-30T03:08:54;16.50;94.50
40960;DHT22;27842;52.272;8.052;2023-08-30T03:11:20;16.50;94.50
40960;DHT22;27842;52.272;8.052;2023-08-30T03:13:45;16.50;94.50
40960;DHT22;27842;52.272;8.052;2023-08-30T03:16:12;16.50;94.50
40960;DHT22;27842;52.272;8.052;2023-08-30T03:18:38;16.40;94.50
40960;DHT22;27842;52.272;8.052;2023-08-30T03:21:04;16.40;94.60
40960;DHT22;27842;52.272;8.052;2023-08-30T03:23:31;16.40;94.60
40960;DHT22;27842;52.272;8.052;2023-08-30T03:25:57;16.40;94.60
40960;DHT22;27842;52.272;8.052;2023-08-30T03:28:23;16.40;94.60
40960;DHT22;27842;52.272;8.052;2023-08-30T03:30:48;16.40;94.60
40960;DHT22;27842;52.272;8.052;2023-08-30T03:33:14;16.40;94.60
40960;DHT22;27842;52.272;8.052;2023-08-30T03:35:40;16.30;94.60
40960;DHT22;27842;52.272;8.052;2023-08-30T03:38:05;16.30;94.60
40960;DHT22;27842;52.272;8.052;2023-08-30T03:40:31;16.30;94.70
40960;DHT22;27842;52.272;8.052;2023-08-30T03:42:56;16.30;94.60
40960;DHT22;27842;52.272;8.052;2023-08-30T03:45:22;16.20;94.70
40960;DHT22;27842;52.272;8.052;2023-08-30T03:47:48;16.20;94.80
40960;DHT22;27842;52.272;8.052;2023-08-30T03:50:13;16.20;94.80
40960;DHT22;27842;52.272;8.052;2023-08-30T03:52:39;16.10;94.80
40960;DHT22;27842;52.272;8.052;2023-08-30T03:55:05;16.10;94.80
40960;DHT22;27842;52.272;8.052;2023-08-30T03:57:30;16.10;94.80
40960;DHT22;27842;52.272;8.052;2023-08-30T03:59:56;16.10;94.80
40960;DHT22;27842;52.272;8.052;2023-08-30T04:02:22;16.10;94.80
40960;DHT22;27842;52.272;8.052;2023-08-30T04:04:48;16.10;95.10
40960;DHT22;27842;52.272;8.052;2023-08-30T04:07:15;16.10;94.80
40960;DHT22;27842;52.272;8.052;2023-08-30T04:09:40;16.00;94.80
40960;DHT22;27842;52.272;8.052;2023-08-30T04:12:06;16.00;94.80
40960;DHT22;27842;52.272;8.052;2023-08-30T04:14:32;16.00;94.80
40960;DHT22;27842;52.272;8.052;2023-08-30T04:16:57;16.00;94.80
40960;DHT22;27842;52.272;8.052;2023-08-30T04:19:23;16.10;94.80
40960;DHT22;27842;52.272;8.052;2023-08-30T04:21:49;16.10;94.80
40960;DHT22;27842;52.272;8.052;2023-08-30T04:24:15;16.10;94.80
40960;DHT22;27842;52.272;8.052;2023-08-30T04:26:41;16.10;94.80
40960;DHT22;27842;52.272;8.052;2023-08-30T04:29:06;16.10;95.10
40960;DHT22;27842;52.272;8.052;2023-08-30T04:31:32;16.10;94.80
40960;DHT22;27842;52.272;8.052;2023-08-30T04:33:58;16.10;94.70
40960;DHT22;27842;52.272;8.052;2023-08-30T04:36:24;16.10;95.00
40960;DHT22;27842;52.272;8.052;2023-08-30T04:38:49;16.20;94.70
40960;DHT22;27842;52.272;8.052;2023-08-30T04:41:15;16.10;94.70
40960;DHT22;27842;52.272;8.052;2023-08-30T04:43:40;16.10;94.70
40960;DHT22;27842;52.272;8.052;2023-08-30T04:46:06;16.10;94.70
40960;DHT22;27842;52.272;8.052;2023-08-30T04:48:32;16.10;94.70
40960;DHT22;27842;52.272;8.052;2023-08-30T04:51:01;16.10;94.70
40960;DHT22;27842;52.272;8.052;2023-08-30T04:53:28;16.10;94.70
40960;DHT22;27842;52.272;8.052;2023-08-30T04:55:54;16.00;94.70
40960;DHT22;27842;52.272;8.052;2023-08-30T04:58:20;16.00;94.70
40960;DHT22;27842;52.272;8.052;2023-08-30T05:00:45;16.00;94.70
40960;DHT22;27842;52.272;8.052;2023-08-30T05:03:11;16.00;94.70
40960;DHT22;27842;52.272;8.052;2023-08-30T05:05:37;16.00;94.70
40960;DHT22;27842;52.272;8.052;2023-08-30T05:08:03;16.00;94.70
40960;DHT22;27842;52.272;8.052;2023-08-30T05:10:29;16.00;94.70
40960;DHT22;27842;52.272;8.052;2023-08-30T05:12:55;16.00;94.80
40960;DHT22;27842;52.272;8.052;2023-08-30T05:15:20;16.00;94.80
40960;DHT22;27842;52.272;8.052;2023-08-30T05:17:46;15.90;94.80
40960;DHT22;27842;52.272;8.052;2023-08-30T05:20:12;15.90;94.80
40960;DHT22;27842;52.272;8.052;2023-08-30T05:22:38;15.90;94.80
40960;DHT22;27842;52.272;8.052;2023-08-30T05:25:04;15.90;94.80
40960;DHT22;27842;52.272;8.052;2023-08-30T05:27:30;15.90;94.80
40960;DHT22;27842;52.272;8.052;2023-08-30T05:29:55;16.00;94.80
40960;DHT22;27842;52.272;8.052;2023-08-30T05:32:21;16.00;94.80
40960;DHT22;27842;52.272;8.052;2023-08-30T05:34:47;16.00;94.80
40960;DHT22;27842;52.272;8.052;2023-08-30T05:37:13;16.00;94.70
40960;DHT22;27842;52.272;8.052;2023-08-30T05:39:38;16.00;94.70
40960;DHT22;27842;52.272;8.052;2023-08-30T05:42:04;16.00;94.70
40960;DHT22;27842;52.272;8.052;2023-08-30T05:44:30;16.00;94.70
40960;DHT22;27842;52.272;8.052;2023-08-30T05:46:55;16.00;94.70
40960;DHT22;27842;52.272;8.052;2023-08-30T05:49:21;16.00;94.70
40960;DHT22;27842;52.272;8.052;2023-08-30T05:51:47;16.10;94.70
40960;DHT22;27842;52.272;8.052;2023-08-30T05:54:13;16.10;94.70
40960;DHT22;27842;52.272;8.052;2023-08-30T05:56:39;16.10;94.70
40960;DHT22;27842;52.272;8.052;2023-08-30T05:59:05;16.10;94.60
40960;DHT22;27842;52.272;8.052;2023-08-30T06:01:30;16.10;94.60
40960;DHT22;27842;52.272;8.052;2023-08-30T06:03:56;16.10;94.60
40960;DHT22;27842;52.272;8.052;2023-08-30T06:06:21;16.10;94.60
40960;DHT22;27842;52.272;8.052;2023-08-30T06:08:47;16.10;94.60
40960;DHT22;27842;52.272;8.052;2023-08-30T06:11:13;16.20;94.60
40960;DHT22;27842;52.272;8.052;2023-08-30T06:13:39;16.20;94.60
40960;DHT22;27842;52.272;8.052;2023-08-30T06:16:05;16.20;94.60
40960;DHT22;27842;52.272;8.052;2023-08-30T06:18:31;16.20;94.60
40960;DHT22;27842;52.272;8.052;2023-08-30T06:20:57;16.20;94.50
40960;DHT22;27842;52.272;8.052;2023-08-30T06:23:23;16.20;94.50
40960;DHT22;27842;52.272;8.052;2023-08-30T06:25:58;16.20;94.50
40960;DHT22;27842;52.272;8.052;2023-08-30T06:28:24;16.30;94.50
40960;DHT22;27842;52.272;8.052;2023-08-30T06:30:49;16.30;94.40
40960;DHT22;27842;52.272;8.052;2023-08-30T06:33:16;16.30;94.40
40960;DHT22;27842;52.272;8.052;2023-08-30T06:35:42;16.40;94.40
40960;DHT22;27842;52.272;8.052;2023-08-30T06:38:08;16.40;94.40
40960;DHT22;27842;52.272;8.052;2023-08-30T06:40:33;16.40;94.40
40960;DHT22;27842;52.272;8.052;2023-08-30T06:42:59;16.40;94.40
40960;DHT22;27842;52.272;8.052;2023-08-30T06:45:25;16.50;94.40
40960;DHT22;27842;52.272;8.052;2023-08-30T06:47:50;16.50;94.30
40960;DHT22;27842;52.272;8.052;2023-08-30T06:50:18;16.50;94.30
40960;DHT22;27842;52.272;8.052;2023-08-30T06:52:44;16.60;94.30
40960;DHT22;27842;52.272;8.052;2023-08-30T06:55:09;16.60;94.30
40960;DHT22;27842;52.272;8.052;2023-08-30T06:57:35;16.70;94.30
40960;DHT22;27842;52.272;8.052;2023-08-30T07:00:01;16.70;94.30
40960;DHT22;27842;52.272;8.052;2023-08-30T07:02:34;16.70;94.20
40960;DHT22;27842;52.272;8.052;2023-08-30T07:05:00;16.70;94.20
40960;DHT22;27842;52.272;8.052;2023-08-30T07:07:26;16.80;94.10
40960;DHT22;27842;52.272;8.052;2023-08-30T07:09:52;16.80;94.10
40960;DHT22;27842;52.272;8.052;2023-08-30T07:12:17;16.90;94.10
40960;DHT22;27842;52.272;8.052;2023-08-30T07:14:43;16.90;94.30
40960;DHT22;27842;52.272;8.052;2023-08-30T07:17:08;16.90;94.00
40960;DHT22;27842;52.272;8.052;2023-08-30T07:19:34;16.90;94.00
40960;DHT22;27842;52.272;8.052;2023-08-30T07:21:59;17.00;94.00
40960;DHT22;27842;52.272;8.052;2023-08-30T07:24:25;17.00;93.90
40960;DHT22;27842;52.272;8.052;2023-08-30T07:26:50;17.10;93.90
40960;DHT22;27842;52.272;8.052;2023-08-30T07:29:16;17.20;93.80
40960;DHT22;27842;52.272;8.052;2023-08-30T07:31:42;17.30;93.70
40960;DHT22;27842;52.272;8.052;2023-08-30T07:34:07;17.30;93.70
40960;DHT22;27842;52.272;8.052;2023-08-30T07:36:33;17.40;93.50
40960;DHT22;27842;52.272;8.052;2023-08-30T07:38:59;17.50;93.50
40960;DHT22;27842;52.272;8.052;2023-08-30T07:41:25;17.50;93.40
40960;DHT22;27842;52.272;8.052;2023-08-30T07:43:50;17.60;93.40
40960;DHT22;27842;52.272;8.052;2023-08-30T07:46:16;17.60;93.30
40960;DHT22;27842;52.272;8.052;2023-08-30T07:48:41;17.70;93.30
40960;DHT22;27842;52.272;8.052;2023-08-30T07:51:07;17.60;93.30
40960;DHT22;27842;52.272;8.052;2023-08-30T07:53:32;17.70;93.30
40960;DHT22;27842;52.272;8.052;2023-08-30T07:55:58;17.60;93.30
40960;DHT22;27842;52.272;8.052;2023-08-30T07:58:24;17.70;93.30
40960;DHT22;27842;52.272;8.052;2023-08-30T08:00:53;17.70;93.20
40960;DHT22;27842;52.272;8.052;2023-08-30T08:03:25;17.80;93.20
40960;DHT22;27842;52.272;8.052;2023-08-30T08:05:51;17.90;93.20
40960;DHT22;27842;52.272;8.052;2023-08-30T08:08:16;18.00;93.10
40960;DHT22;27842;52.272;8.052;2023-08-30T08:10:42;18.00;93.10
40960;DHT22;27842;52.272;8.052;2023-08-30T08:13:08;18.00;93.00
40960;DHT22;27842;52.272;8.052;2023-08-30T08:15:34;18.10;93.00
40960;DHT22;27842;52.272;8.052;2023-08-30T08:18:00;18.10;92.90
40960;DHT22;27842;52.272;8.052;2023-08-30T08:20:26;18.20;92.90
40960;DHT22;27842;52.272;8.052;2023-08-30T08:22:52;18.20;92.90
40960;DHT22;27842;52.272;8.052;2023-08-30T08:25:18;18.20;92.90
40960;DHT22;27842;52.272;8.052;2023-08-30T08:27:43;18.30;92.90
40960;DHT22;27842;52.272;8.052;2023-08-30T08:30:09;18.30;92.80
40960;DHT22;27842;52.272;8.052;2023-08-30T08:32:36;18.40;92.80
40960;DHT22;27842;52.272;8.052;2023-08-30T08:35:01;18.40;92.80
40960;DHT22;27842;52.272;8.052;2023-08-30T08:37:28;18.40;92.70
40960;DHT22;27842;52.272;8.052;2023-08-30T08:39:54;18.50;92.80
40960;DHT22;27842;52.272;8.052;2023-08-30T08:42:20;18.50;92.60
40960;DHT22;27842;52.272;8.052;2023-08-30T08:44:54;18.50;92.60
40960;DHT22;27842;52.272;8.052;2023-08-30T08:47:20;18.50;92.60
40960;DHT22;27842;52.272;8.052;2023-08-30T08:49:50;18.60;92.60
40960;DHT22;27842;52.272;8.052;2023-08-30T08:52:16;18.60;92.60
40960;DHT22;27842;52.272;8.052;2023-08-30T08:54:43;18.60;92.50
40960;DHT22;27842;52.272;8.052;2023-08-30T08:57:10;18.70;92.50
40960;DHT22;27842;52.272;8.052;2023-08-30T08:59:35;18.70;92.50
40960;DHT22;27842;52.272;8.052;2023-08-30T09:02:01;18.70;92.50
40960;DHT22;27842;52.272;8.052;2023-08-30T09:04:30;18.80;92.50
40960;DHT22;27842;52.272;8.052;2023-08-30T09:06:57;18.80;92.40
40960;DHT22;27842;52.272;8.052;2023-08-30T09:09:23;18.80;92.40
40960;DHT22;27842;52.272;8.052;2023-08-30T09:11:49;18.80;92.40
40960;DHT22;27842;52.272;8.052;2023-08-30T09:14:14;18.80;92.40
40960;DHT22;27842;52.272;8.052;2023-08-30T09:16:40;18.80;92.40
40960;DHT22;27842;52.272;8.052;2023-08-30T09:19:06;18.80;92.40
40960;DHT22;27842;52.272;8.052;2023-08-30T09:21:33;18.80;92.40
40960;DHT22;27842;52.272;8.052;2023-08-30T09:24:06;18.80;92.40
40960;DHT22;27842;52.272;8.052;2023-08-30T09:26:34;18.80;92.40
40960;DHT22;27842;52.272;8.052;2023-08-30T09:29:05;18.70;92.40
40960;DHT22;27842;52.272;8.052;2023-08-30T09:34:01;18.70;92.50
40960;DHT22;27842;52.272;8.052;2023-08-30T09:36:38;18.70;92.50
40960;DHT22;27842;52.272;8.052;2023-08-30T09:39:05;18.70;92.50
40960;DHT22;27842;52.272;8.052;2023-08-30T09:41:31;18.70;92.50
40960;DHT22;27842;52.272;8.052;2023-08-30T09:44:06;18.70;92.50
40960;DHT22;27842;52.272;8.052;2023-08-30T09:46:32;18.60;92.60
40960;DHT22;27842;52.272;8.052;2023-08-30T09:48:58;18.60;92.60
40960;DHT22;27842;52.272;8.052;2023-08-30T09:51:25;18.60;92.70
40960;DHT22;27842;52.272;8.052;2023-08-30T09:53:53;18.50;92.70
40960;DHT22;27842;52.272;8.052;2023-08-30T09:56:23;18.50;92.80
40960;DHT22;27842;52.272;8.052;2023-08-30T09:58:50;18.50;92.90
40960;DHT22;27842;52.272;8.052;2023-08-30T10:01:16;18.50;92.90
40960;DHT22;27842;52.272;8.052;2023-08-30T10:03:42;18.50;92.90
40960;DHT22;27842;52.272;8.052;2023-08-30T10:06:08;18.50;92.90
40960;DHT22;27842;52.272;8.052;2023-08-30T10:08:34;18.50;93.00
40960;DHT22;27842;52.272;8.052;2023-08-30T10:11:02;18.50;93.00
40960;DHT22;27842;52.272;8.052;2023-08-30T10:13:29;18.50;93.00
40960;DHT22;27842;52.272;8.052;2023-08-30T10:16:00;18.50;93.00
40960;DHT22;27842;52.272;8.052;2023-08-30T10:18:29;18.50;93.00
40960;DHT22;27842;52.272;8.052;2023-08-30T10:20:57;18.50;93.00
40960;DHT22;27842;52.272;8.052;2023-08-30T10:23:25;18.50;93.00
40960;DHT22;27842;52.272;8.052;2023-08-30T10:25:54;18.50;92.90
40960;DHT22;27842;52.272;8.052;2023-08-30T10:28:21;18.50;92.90
40960;DHT22;27842;52.272;8.052;2023-08-30T10:30:48;18.60;92.90
40960;DHT22;27842;52.272;8.052;2023-08-30T10:33:14;18.60;92.80
40960;DHT22;27842;52.272;8.052;2023-08-30T10:35:48;18.60;92.80
40960;DHT22;27842;52.272;8.052;2023-08-30T10:38:29;18.60;92.80
40960;DHT22;27842;52.272;8.052;2023-08-30T10:40:55;18.60;92.80
40960;DHT22;27842;52.272;8.052;2023-08-30T10:43:34;18.70;92.70
40960;DHT22;27842;52.272;8.052;2023-08-30T10:46:04;18.70;92.40
40960;DHT22;27842;52.272;8.052;2023-08-30T10:48:39;18.70;92.40
40960;DHT22;27842;52.272;8.052;2023-08-30T10:51:19;18.70;92.60
40960;DHT22;27842;52.272;8.052;2023-08-30T10:54:25;18.70;92.50
40960;DHT22;27842;52.272;8.052;2023-08-30T10:56:58;18.70;92.40
40960;DHT22;27842;52.272;8.052;2023-08-30T10:59:26;18.70;92.30
40960;DHT22;27842;52.272;8.052;2023-08-30T11:01:53;18.80;92.40
40960;DHT22;27842;52.272;8.052;2023-08-30T11:04:19;18.80;92.60
40960;DHT22;27842;52.272;8.052;2023-08-30T11:06:46;18.70;92.30
40960;DHT22;27842;52.272;8.052;2023-08-30T11:09:16;18.70;92.30
40960;DHT22;27842;52.272;8.052;2023-08-30T11:11:46;18.70;92.30
40960;DHT22;27842;52.272;8.052;2023-08-30T11:14:13;18.70;92.30
40960;DHT22;27842;52.272;8.052;2023-08-30T11:16:39;18.70;92.30
40960;DHT22;27842;52.272;8.052;2023-08-30T11:19:06;18.70;92.40
40960;DHT22;27842;52.272;8.052;2023-08-30T11:21:53;18.70;92.40
40960;DHT22;27842;52.272;8.052;2023-08-30T11:24:18;18.70;92.40
40960;DHT22;27842;52.272;8.052;2023-08-30T11:26:44;18.70;92.40
40960;DHT22;27842;52.272;8.052;2023-08-30T11:29:12;18.70;92.30
40960;DHT22;27842;52.272;8.052;2023-08-30T11:31:37;18.70;92.40
40960;DHT22;27842;52.272;8.052;2023-08-30T11:34:03;18.80;92.40
40960;DHT22;27842;52.272;8.052;2023-08-30T11:36:30;18.80;92.40
40960;DHT22;27842;52.272;8.052;2023-08-30T11:38:56;18.80;92.40
40960;DHT22;27842;52.272;8.052;2023-08-30T11:41:23;18.80;92.40
40960;DHT22;27842;52.272;8.052;2023-08-30T11:43:50;18.80;92.40
40960;DHT22;27842;52.272;8.052;2023-08-30T11:46:17;18.80;92.40
40960;DHT22;27842;52.272;8.052;2023-08-30T11:48:43;18.80;92.40
40960;DHT22;27842;52.272;8.052;2023-08-30T11:51:10;18.80;92.40
40960;DHT22;27842;52.272;8.052;2023-08-30T11:53:37;18.80;92.40
40960;DHT22;27842;52.272;8.052;2023-08-30T11:56:04;18.80;92.40
40960;DHT22;27842;52.272;8.052;2023-08-30T11:58:34;18.90;92.40
40960;DHT22;27842;52.272;8.052;2023-08-30T12:01:00;18.90;92.40
40960;DHT22;27842;52.272;8.052;2023-08-30T12:03:27;18.80;92.40
40960;DHT22;27842;52.272;8.052;2023-08-30T12:05:54;18.80;92.40
40960;DHT22;27842;52.272;8.052;2023-08-30T12:08:30;18.80;92.50
40960;DHT22;27842;52.272;8.052;2023-08-30T12:10:57;18.80;92.60
40960;DHT22;27842;52.272;8.052;2023-08-30T12:13:24;18.80;92.70
40960;DHT22;27842;52.272;8.052;2023-08-30T12:15:51;18.80;92.80
40960;DHT22;27842;52.272;8.052;2023-08-30T12:18:16;18.70;92.90
40960;DHT22;27842;52.272;8.052;2023-08-30T12:21:00;18.60;93.10
40960;DHT22;27842;52.272;8.052;2023-08-30T12:23:27;18.50;93.40
40960;DHT22;27842;52.272;8.052;2023-08-30T12:26:00;18.40;93.60
40960;DHT22;27842;52.272;8.052;2023-08-30T12:28:27;18.30;93.80
40960;DHT22;27842;52.272;8.052;2023-08-30T12:30:53;18.20;94.00
40960;DHT22;27842;52.272;8.052;2023-08-30T12:33:19;18.10;94.30
40960;DHT22;27842;52.272;8.052;2023-08-30T12:35:45;18.00;94.30
40960;DHT22;27842;52.272;8.052;2023-08-30T12:38:11;18.00;94.50
40960;DHT22;27842;52.272;8.052;2023-08-30T12:40:47;17.90;94.60
40960;DHT22;27842;52.272;8.052;2023-08-30T12:43:13;17.80;95.00
40960;DHT22;27842;52.272;8.052;2023-08-30T12:45:40;17.80;95.00
40960;DHT22;27842;52.272;8.052;2023-08-30T12:48:10;17.70;95.00
40960;DHT22;27842;52.272;8.052;2023-08-30T12:50:37;17.70;95.20
40960;DHT22;27842;52.272;8.052;2023-08-30T12:53:06;17.60;95.20
40960;DHT22;27842;52.272;8.052;2023-08-30T12:55:32;17.60;95.50
40960;DHT22;27842;52.272;8.052;2023-08-30T12:58:01;17.50;95.40
40960;DHT22;27842;52.272;8.052;2023-08-30T13:00:28;17.50;95.60
40960;DHT22;27842;52.272;8.052;2023-08-30T13:02:54;17.40;95.60
40960;DHT22;27842;52.272;8.052;2023-08-30T13:05:20;17.40;95.80
40960;DHT22;27842;52.272;8.052;2023-08-30T13:07:47;17.30;95.70
40960;DHT22;27842;52.272;8.052;2023-08-30T13:10:13;17.30;95.80
40960;DHT22;27842;52.272;8.052;2023-08-30T13:12:40;17.30;95.90
40960;DHT22;27842;52.272;8.052;2023-08-30T13:15:06;17.20;96.00
40960;DHT22;27842;52.272;8.052;2023-08-30T13:17:32;17.20;96.30
40960;DHT22;27842;52.272;8.052;2023-08-30T13:19:58;17.20;96.20
40960;DHT22;27842;52.272;8.052;2023-08-30T13:22:24;17.10;96.20
40960;DHT22;27842;52.272;8.052;2023-08-30T13:24:51;17.10;96.40
40960;DHT22;27842;52.272;8.052;2023-08-30T13:27:18;17.10;96.30
40960;DHT22;27842;52.272;8.052;2023-08-30T13:29:43;17.10;96.30
40960;DHT22;27842;52.272;8.052;2023-08-30T13:32:09;17.10;96.30
40960;DHT22;27842;52.272;8.052;2023-08-30T13:34:35;17.10;96.40
40960;DHT22;27842;52.272;8.052;2023-08-30T13:37:00;17.10;96.50
40960;DHT22;27842;52.272;8.052;2023-08-30T13:39:26;17.10;96.50
40960;DHT22;27842;52.272;8.052;2023-08-30T13:41:51;17.00;96.60
40960;DHT22;27842;52.272;8.052;2023-08-30T13:44:17;17.00;96.70
40960;DHT22;27842;52.272;8.052;2023-08-30T13:46:43;17.00;96.70
40960;DHT22;27842;52.272;8.052;2023-08-30T13:49:09;17.00;96.70
40960;DHT22;27842;52.272;8.052;2023-08-30T13:51:35;17.00;96.80
40960;DHT22;27842;52.272;8.052;2023-08-30T13:54:02;17.10;96.80
40960;DHT22;27842;52.272;8.052;2023-08-30T13:56:28;17.10;96.80
40960;DHT22;27842;52.272;8.052;2023-08-30T13:58:56;17.10;96.90
40960;DHT22;27842;52.272;8.052;2023-08-30T14:01:21;17.20;96.90
40960;DHT22;27842;52.272;8.052;2023-08-30T14:03:47;17.20;96.90
40960;DHT22;27842;52.272;8.052;2023-08-30T14:06:12;17.20;96.90
40960;DHT22;27842;52.272;8.052;2023-08-30T14:08:38;17.30;97.00
40960;DHT22;27842;52.272;8.052;2023-08-30T14:11:04;17.30;97.00
40960;DHT22;27842;52.272;8.052;2023-08-30T14:13:29;17.30;97.10
40960;DHT22;27842;52.272;8.052;2023-08-30T14:16:02;17.30;97.10
40960;DHT22;27842;52.272;8.052;2023-08-30T14:18:31;17.30;97.20
40960;DHT22;27842;52.272;8.052;2023-08-30T14:20:57;17.30;97.10
40960;DHT22;27842;52.272;8.052;2023-08-30T14:23:28;17.30;97.10
40960;DHT22;27842;52.272;8.052;2023-08-30T14:25:58;17.30;97.10
40960;DHT22;27842;52.272;8.052;2023-08-30T14:28:27;17.40;97.20
40960;DHT22;27842;52.272;8.052;2023-08-30T14:30:53;17.30;97.20
40960;DHT22;27842;52.272;8.052;2023-08-30T14:33:19;17.40;97.20
40960;DHT22;27842;52.272;8.052;2023-08-30T14:35:45;17.30;97.20
40960;DHT22;27842;52.272;8.052;2023-08-30T14:38:11;17.30;97.40
40960;DHT22;27842;52.272;8.052;2023-08-30T14:40:37;17.30;97.30
40960;DHT22;27842;52.272;8.052;2023-08-30T14:43:03;17.30;97.30
40960;DHT22;27842;52.272;8.052;2023-08-30T14:45:30;17.30;97.40
40960;DHT22;27842;52.272;8.052;2023-08-30T14:47:55;17.30;97.40
40960;DHT22;27842;52.272;8.052;2023-08-30T14:50:21;17.30;97.50
40960;DHT22;27842;52.272;8.052;2023-08-30T14:52:47;17.30;97.50
40960;DHT22;27842;52.272;8.052;2023-08-30T14:55:15;17.20;97.40
40960;DHT22;27842;52.272;8.052;2023-08-30T14:57:41;17.20;97.70
40960;DHT22;27842;52.272;8.052;2023-08-30T15:00:07;17.20;97.60
40960;DHT22;27842;52.272;8.052;2023-08-30T15:02:33;17.20;97.50
40960;DHT22;27842;52.272;8.052;2023-08-30T15:04:58;17.20;97.60
40960;DHT22;27842;52.272;8.052;2023-08-30T15:07:24;17.20;97.60
40960;DHT22;27842;52.272;8.052;2023-08-30T15:09:50;17.10;97.60
40960;DHT22;27842;52.272;8.052;2023-08-30T15:12:16;17.10;97.70
40960;DHT22;27842;52.272;8.052;2023-08-30T15:14:41;17.10;97.70
40960;DHT22;27842;52.272;8.052;2023-08-30T15:17:08;17.10;97.60
40960;DHT22;27842;52.272;8.052;2023-08-30T15:19:34;17.10;97.70
40960;DHT22;27842;52.272;8.052;2023-08-30T15:21:59;17.10;97.70
40960;DHT22;27842;52.272;8.052;2023-08-30T15:24:25;17.10;97.70
40960;DHT22;27842;52.272;8.052;2023-08-30T15:26:51;17.10;97.70
40960;DHT22;27842;52.272;8.052;2023-08-30T15:29:16;17.10;97.80
40960;DHT22;27842;52.272;8.052;2023-08-30T15:31:42;17.10;97.80
40960;DHT22;27842;52.272;8.052;2023-08-30T15:34:08;17.10;97.80